Terminal Aerodrome Forecast
Issued by NWS Quad Cities IA IL

Home | Current Version | Previous Version | Text Only | Print | Product List | Glossary On
Versions: 1 2 3 4 5 6 7 8 9 10 11 12 13 14 15 16 17 18 19 20
000
FTUS43 KDVN 302340
TAFMLI
TAF
KMLI 302340Z 0100/0124 36005KT 6SM HZ SCT070 BKN250
     FM010300 06003KT 6SM HZ FEW030 BKN250
     FM011500 07009KT 6SM BR BKN150 BKN250=

USA.gov is the U.S. government's official web portal to all federal, state and local government web resources and services.